Time;durP1;ratioP1;P1;durP2;ratioP2;P2;SDS_P1;SDS_P2;PMS_P1;PMS_P2;Temp;Humidity;BMP_temperature;BMP_pressure;BME280_temperature;BME280_humidity;BME280_pressure;Samples;Min_cycle;Max_cycle;Signal;HPM_P1;HPM_P2
2023/05/09 00:00:45;;;;;;;7.57;2.78;;;18.80;96.70;;;;;;4943001;28;20145;-72
2023/05/09 00:03:13;;;;;;;2.70;2.33;;;18.80;96.70;;;;;;4959757;28;20047;-72
2023/05/09 00:05:41;;;;;;;4.05;2.40;;;18.70;96.70;;;;;;4961118;28;20043;-72
2023/05/09 00:08:11;;;;;;;2.75;2.10;;;18.60;96.70;;;;;;4959364;28;20575;-72
2023/05/09 00:10:39;;;;;;;3.45;2.47;;;18.70;96.70;;;;;;4945940;28;20074;-72
2023/05/09 00:13:07;;;;;;;4.38;2.50;;;18.70;96.70;;;;;;4957454;28;20066;-72
2023/05/09 00:15:35;;;;;;;5.70;2.00;;;18.70;96.70;;;;;;4952612;28;20459;-73
2023/05/09 00:26:31;;;;;;;4.90;2.60;;;18.60;96.70;;;;;;4965164;28;20045;-73
2023/05/09 00:28:59;;;;;;;4.25;2.70;;;18.60;96.70;;;;;;4960994;28;20051;-73
2023/05/09 00:31:27;;;;;;;4.18;2.72;;;18.60;96.70;;;;;;4977207;28;20108;-72
2023/05/09 00:33:56;;;;;;;3.38;2.53;;;18.40;96.70;;;;;;4962516;28;20051;-71
2023/05/09 00:36:24;;;;;;;4.47;2.53;;;18.40;96.70;;;;;;4962372;28;20101;-72
2023/05/09 00:38:52;;;;;;;3.78;2.72;;;18.50;96.70;;;;;;4963831;28;20054;-72
2023/05/09 00:45:14;;;;;;;4.13;2.72;;;18.60;96.70;;;;;;4962988;28;20035;-72
2023/05/09 00:47:45;;;;;;;3.72;2.25;;;18.50;96.70;;;;;;4963798;28;20046;-72
2023/05/09 01:11:25;;;;;;;5.28;2.13;;;18.10;96.70;;;;;;4963613;28;20048;-72
2023/05/09 01:14:03;;;;;;;3.25;2.53;;;18.10;96.70;;;;;;4963852;28;20081;-72
2023/05/09 01:16:38;;;;;;;3.55;2.33;;;18.10;96.70;;;;;;4962625;28;20046;-72
2023/05/09 01:19:22;;;;;;;2.47;2.28;;;18.10;96.70;;;;;;4962557;28;20047;-73
2023/05/09 01:21:51;;;;;;;4.28;2.58;;;18.10;96.70;;;;;;4962563;28;20264;-73
2023/05/09 01:24:38;;;;;;;2.85;1.88;;;18.00;96.70;;;;;;4945735;28;20624;-72
2023/05/09 01:27:22;;;;;;;2.47;1.95;;;18.00;96.70;;;;;;4963262;28;20113;-72
2023/05/09 01:29:56;;;;;;;2.17;1.98;;;18.10;96.70;;;;;;4962508;28;20047;-72
2023/05/09 03:00:58;;;;;;;3.00;2.13;;;17.20;96.70;;;;;;4936549;28;20170;-72
2023/05/09 03:03:27;;;;;;;2.08;1.88;;;17.20;96.70;;;;;;4962602;28;20035;-72
2023/05/09 03:05:56;;;;;;;4.88;2.70;;;17.20;96.70;;;;;;4961471;28;20138;-72
2023/05/09 03:08:24;;;;;;;3.30;2.72;;;17.30;96.70;;;;;;4962091;28;20101;-73
2023/05/09 03:52:57;;;;;;;3.03;1.90;;;16.80;96.70;;;;;;4954453;28;20033;-72
2023/05/09 03:55:26;;;;;;;2.22;2.03;;;16.80;96.70;;;;;;4944357;28;20078;-72
2023/05/09 03:57:55;;;;;;;6.55;2.63;;;16.80;96.70;;;;;;4975071;28;20054;-72
2023/05/09 04:00:26;;;;;;;2.58;2.30;;;16.70;96.70;;;;;;4959564;28;20046;-72
2023/05/09 04:03:06;;;;;;;3.58;2.80;;;16.60;96.70;;;;;;4960438;28;20142;-72
2023/05/09 04:05:39;;;;;;;3.17;2.28;;;16.70;96.70;;;;;;4961210;28;20055;-72
2023/05/09 04:08:15;;;;;;;2.95;2.60;;;16.80;96.70;;;;;;4963666;28;20054;-73
2023/05/09 04:10:43;;;;;;;3.60;2.53;;;16.80;96.70;;;;;;4957907;28;20098;-72
2023/05/09 04:13:11;;;;;;;2.97;2.40;;;16.60;96.70;;;;;;4958879;28;20075;-72
2023/05/09 04:53:39;;;;;;;3.47;2.80;;;16.50;96.70;;;;;;4958998;28;20045;-72
2023/05/09 04:56:07;;;;;;;4.18;2.95;;;16.70;96.70;;;;;;4959553;28;20051;-72
2023/05/09 04:58:39;;;;;;;4.40;3.35;;;16.80;96.70;;;;;;4960425;28;20034;-72
2023/05/09 05:01:10;;;;;;;4.38;3.58;;;16.90;96.70;;;;;;4959447;28;20043;-72
2023/05/09 05:03:39;;;;;;;3.78;3.45;;;17.00;96.70;;;;;;4960808;28;20051;-72
2023/05/09 05:06:07;;;;;;;4.57;3.60;;;17.00;96.70;;;;;;4960570;28;20138;-72
2023/05/09 05:08:37;;;;;;;7.75;4.13;;;17.10;96.70;;;;;;4962376;28;20051;-72
2023/05/09 05:11:06;;;;;;;7.20;3.95;;;17.10;96.70;;;;;;4961499;28;20067;-72
2023/05/09 05:13:34;;;;;;;8.15;3.67;;;17.10;96.70;;;;;;4961768;28;20047;-72
2023/05/09 05:16:03;;;;;;;6.97;4.28;;;17.10;96.70;;;;;;4961702;28;20120;-72
2023/05/09 05:18:32;;;;;;;10.77;5.13;;;17.20;96.70;;;;;;4962469;28;20063;-73
2023/05/09 05:21:00;;;;;;;8.07;4.32;;;17.20;96.70;;;;;;4961447;28;20125;-72
2023/05/09 05:23:29;;;;;;;9.10;4.07;;;17.20;96.70;;;;;;4964255;28;20543;-72
2023/05/09 05:25:57;;;;;;;8.95;4.30;;;17.30;96.70;;;;;;4963946;28;20070;-73
2023/05/09 05:28:28;;;;;;;6.50;4.47;;;17.40;96.70;;;;;;4963898;28;20066;-72
2023/05/09 05:30:56;;;;;;;7.18;4.35;;;17.40;96.70;;;;;;4957399;28;20049;-72
2023/05/09 05:33:24;;;;;;;7.18;4.97;;;17.40;96.70;;;;;;4946672;28;20039;-73
2023/05/09 05:35:53;;;;;;;10.05;6.22;;;17.50;96.70;;;;;;4964436;28;20145;-72
2023/05/09 05:38:21;;;;;;;11.02;6.72;;;17.50;96.70;;;;;;4961077;28;20035;-73
2023/05/09 05:40:53;;;;;;;12.35;7.65;;;17.60;96.70;;;;;;4975640;28;20051;-72
2023/05/09 05:43:22;;;;;;;13.27;8.13;;;17.50;96.70;;;;;;4957924;28;20137;-73
2023/05/09 05:45:52;;;;;;;12.05;6.97;;;17.50;96.70;;;;;;4960209;28;20043;-72
2023/05/09 05:48:23;;;;;;;13.80;7.53;;;17.50;96.70;;;;;;4962528;28;20524;-71
2023/05/09 05:50:52;;;;;;;12.07;7.60;;;17.40;96.70;;;;;;4960930;28;20065;-72
2023/05/09 05:53:24;;;;;;;10.02;6.22;;;17.50;96.70;;;;;;4962779;28;20053;-72
2023/05/09 05:55:53;;;;;;;9.07;5.75;;;17.50;96.70;;;;;;4962368;28;20075;-73
2023/05/09 05:58:21;;;;;;;8.55;5.63;;;17.60;96.70;;;;;;4960694;28;20784;-72
2023/05/09 06:00:52;;;;;;;10.07;5.47;;;17.70;96.70;;;;;;4964742;28;20035;-72
2023/05/09 06:03:20;;;;;;;8.40;5.43;;;17.70;96.70;;;;;;4963067;28;20039;-72
2023/05/09 06:06:02;;;;;;;5.57;4.18;;;17.60;96.70;;;;;;4962889;28;20522;-72
2023/05/09 06:08:30;;;;;;;6.03;4.95;;;17.50;96.70;;;;;;4962676;28;20469;-72
2023/05/09 06:11:00;;;;;;;6.00;4.85;;;17.50;96.70;;;;;;4961019;28;20090;-72
2023/05/09 06:13:28;;;;;;;11.52;6.88;;;17.60;96.70;;;;;;4962257;28;20500;-72
2023/05/09 06:16:03;;;;;;;6.82;5.60;;;17.70;96.70;;;;;;4961379;28;20134;-72
2023/05/09 06:18:49;;;;;;;6.68;5.97;;;17.60;96.70;;;;;;4962768;28;20066;-72
2023/05/09 06:21:18;;;;;;;9.68;5.88;;;17.80;96.70;;;;;;4958125;28;20129;-72
2023/05/09 06:23:46;;;;;;;7.38;5.43;;;17.80;96.70;;;;;;4962484;28;20043;-72
2023/05/09 06:26:33;;;;;;;8.05;6.00;;;17.90;96.70;;;;;;4961441;28;20062;-72
2023/05/09 06:29:01;;;;;;;10.85;7.05;;;18.00;96.70;;;;;;4960520;28;20054;-72
2023/05/09 06:31:30;;;;;;;9.18;6.35;;;18.10;96.70;;;;;;4962910;28;20049;-72
2023/05/09 06:33:58;;;;;;;8.02;6.05;;;18.20;96.70;;;;;;4959437;28;20396;-72
2023/05/09 06:36:27;;;;;;;11.13;6.72;;;18.40;96.70;;;;;;4956636;28;20043;-73
2023/05/09 06:38:55;;;;;;;10.93;6.97;;;18.40;96.70;;;;;;4963903;28;20039;-72
2023/05/09 06:41:23;;;;;;;7.95;6.88;;;18.40;96.70;;;;;;4975882;28;20054;-72
2023/05/09 06:43:51;;;;;;;13.07;7.40;;;18.40;96.70;;;;;;4963730;28;20035;-73
2023/05/09 06:46:19;;;;;;;12.10;7.88;;;18.50;96.70;;;;;;4958450;28;20031;-73
2023/05/09 06:48:49;;;;;;;8.95;7.88;;;18.40;96.70;;;;;;4961842;28;20296;-73
2023/05/09 06:51:17;;;;;;;11.75;7.50;;;18.40;96.70;;;;;;4954401;28;20050;-74
2023/05/09 06:53:45;;;;;;;12.90;8.52;;;18.60;96.70;;;;;;4963860;28;20038;-73
2023/05/09 06:56:13;;;;;;;12.93;10.88;;;18.60;96.70;;;;;;4963106;28;20145;-73
2023/05/09 06:58:46;;;;;;;13.13;10.02;;;18.60;96.70;;;;;;4962132;28;20035;-72
2023/05/09 07:01:14;;;;;;;10.98;9.02;;;18.60;96.70;;;;;;4969121;28;20050;-72
2023/05/09 07:03:43;;;;;;;11.48;9.00;;;18.60;96.70;;;;;;4967291;28;20976;-73
2023/05/09 07:06:12;;;;;;;10.00;8.10;;;18.70;96.70;;;;;;4963097;28;20516;-72
2023/05/09 07:08:40;;;;;;;10.07;7.25;;;18.70;96.70;;;;;;4962006;28;20070;-72
2023/05/09 07:11:08;;;;;;;9.93;7.93;;;18.80;96.70;;;;;;4963929;28;20047;-72
2023/05/09 07:13:36;;;;;;;13.23;9.85;;;18.90;96.70;;;;;;4964252;28;20476;-71
2023/05/09 07:16:05;;;;;;;11.10;8.63;;;18.80;96.70;;;;;;4961936;28;20058;-71
2023/05/09 07:18:33;;;;;;;10.23;7.40;;;18.90;96.70;;;;;;4963929;28;20050;-72
2023/05/09 07:21:01;;;;;;;10.80;8.98;;;19.10;96.70;;;;;;4964366;28;20169;-73
2023/05/09 07:23:31;;;;;;;15.32;10.13;;;19.30;96.70;;;;;;4963493;28;20399;-71
2023/05/09 07:26:00;;;;;;;23.88;13.30;;;19.40;96.70;;;;;;4961369;28;20074;-71
2023/05/09 07:28:28;;;;;;;15.70;10.32;;;19.50;96.70;;;;;;4960483;28;21531;-72
2023/05/09 07:30:56;;;;;;;18.13;11.48;;;19.60;96.70;;;;;;4961048;28;20042;-72
2023/05/09 07:33:24;;;;;;;15.73;11.15;;;19.70;96.70;;;;;;4964454;28;20386;-74
2023/05/09 07:35:52;;;;;;;17.20;11.50;;;19.70;96.70;;;;;;4961874;28;20142;-72
2023/05/09 07:38:20;;;;;;;17.33;11.20;;;19.80;96.70;;;;;;4959813;28;20050;-71
2023/05/09 07:40:53;;;;;;;13.40;10.27;;;19.90;96.70;;;;;;4964185;28;20085;-72
2023/05/09 07:43:21;;;;;;;12.30;9.15;;;20.00;96.70;;;;;;4964750;28;20046;-73
2023/05/09 07:45:49;;;;;;;11.65;9.40;;;20.10;96.70;;;;;;4962335;28;20065;-71
2023/05/09 07:48:18;;;;;;;14.05;9.77;;;20.10;96.70;;;;;;4945584;28;20078;-72
2023/05/09 07:50:46;;;;;;;12.18;9.07;;;20.30;96.70;;;;;;4964113;28;20043;-73
2023/05/09 07:53:14;;;;;;;13.40;9.32;;;20.30;96.70;;;;;;4960241;28;20505;-73
2023/05/09 07:55:44;;;;;;;12.82;8.85;;;20.40;96.70;;;;;;4963583;28;20081;-73
2023/05/09 07:58:13;;;;;;;11.43;9.77;;;20.50;96.70;;;;;;4956512;28;20496;-72
2023/05/09 08:00:41;;;;;;;13.18;9.32;;;20.70;96.70;;;;;;4968059;28;20049;-72
2023/05/09 08:03:10;;;;;;;10.23;8.43;;;20.80;96.70;;;;;;4966022;28;20149;-72
2023/05/09 08:05:38;;;;;;;11.50;8.65;;;21.00;96.70;;;;;;4963083;28;20038;-73
2023/05/09 08:08:06;;;;;;;11.98;8.13;;;20.90;96.70;;;;;;4955791;28;20054;-72
2023/05/09 08:10:34;;;;;;;11.15;7.57;;;20.90;96.70;;;;;;4961261;28;20113;-72
2023/05/09 08:13:02;;;;;;;7.72;6.50;;;21.00;96.70;;;;;;4963116;28;20050;-73
2023/05/09 08:15:32;;;;;;;9.18;5.93;;;21.10;96.70;;;;;;4963442;28;20089;-73
2023/05/09 08:18:00;;;;;;;5.93;4.47;;;21.10;96.70;;;;;;4964084;28;20094;-73
2023/05/09 08:20:30;;;;;;;6.50;5.38;;;21.20;96.70;;;;;;4961601;28;20043;-74
2023/05/09 08:22:58;;;;;;;8.02;5.35;;;21.20;96.70;;;;;;4963196;28;20460;-73
2023/05/09 08:25:26;;;;;;;7.40;5.18;;;21.20;96.70;;;;;;4961493;28;20050;-74
2023/05/09 08:27:54;;;;;;;6.82;5.30;;;21.20;96.70;;;;;;4963360;28;20057;-74
2023/05/09 08:30:24;;;;;;;5.82;5.07;;;21.20;96.70;;;;;;4961878;28;20363;-74
2023/05/09 08:32:55;;;;;;;6.05;5.43;;;21.30;96.70;;;;;;4963114;28;20039;-74
2023/05/09 08:35:23;;;;;;;7.53;5.78;;;21.30;96.70;;;;;;4958486;28;20404;-74
2023/05/09 08:37:52;;;;;;;5.85;5.10;;;21.30;96.70;;;;;;4960810;28;20079;-73
2023/05/09 08:40:20;;;;;;;7.13;5.50;;;21.40;96.70;;;;;;4963687;28;20173;-73
2023/05/09 08:42:49;;;;;;;5.93;5.43;;;21.40;96.70;;;;;;4966813;28;20047;-73
2023/05/09 08:45:25;;;;;;;5.90;4.90;;;21.50;96.70;;;;;;4964132;28;20138;-73
2023/05/09 08:47:55;;;;;;;5.27;4.77;;;21.40;96.70;;;;;;4958518;28;20476;-74
2023/05/09 08:50:24;;;;;;;5.65;4.20;;;21.30;96.70;;;;;;4965697;28;20822;-73
2023/05/09 08:52:53;;;;;;;6.78;5.05;;;21.60;96.70;;;;;;4965617;28;20039;-72
2023/05/09 08:55:22;;;;;;;5.78;4.30;;;21.80;96.70;;;;;;4967378;28;20058;-72
2023/05/09 08:57:52;;;;;;;8.35;4.63;;;21.90;96.70;;;;;;4980851;28;20043;-75
2023/05/09 09:00:21;;;;;;;12.60;4.60;;;22.10;96.70;;;;;;4967387;28;20054;-73
2023/05/09 09:02:51;;;;;;;4.90;4.32;;;22.20;96.70;;;;;;4964293;28;20061;-73
2023/05/09 09:05:23;;;;;;;5.20;3.85;;;22.00;96.70;;;;;;4961943;28;20138;-73
2023/05/09 09:08:09;;;;;;;4.82;4.25;;;22.20;96.70;;;;;;4963843;28;20046;-73
2023/05/09 09:10:46;;;;;;;4.60;3.90;;;22.40;96.70;;;;;;4966629;28;20511;-74
2023/05/09 09:13:16;;;;;;;4.60;4.03;;;22.50;96.70;;;;;;4958689;28;20039;-74
2023/05/09 09:15:46;;;;;;;5.20;3.78;;;22.50;96.70;;;;;;4954783;28;20047;-74
2023/05/09 09:18:21;;;;;;;7.75;4.07;;;22.60;96.70;;;;;;4962074;28;20046;-73
2023/05/09 09:20:56;;;;;;;4.15;3.50;;;22.60;96.70;;;;;;4964991;28;20093;-73
2023/05/09 09:23:26;;;;;;;4.25;3.85;;;22.80;96.70;;;;;;4962027;28;20125;-73
2023/05/09 09:26:00;;;;;;;4.93;4.20;;;22.90;96.70;;;;;;4957687;28;20945;-74
2023/05/09 09:28:29;;;;;;;6.00;3.85;;;22.90;96.70;;;;;;4955649;28;20081;-73
2023/05/09 09:30:58;;;;;;;7.05;4.20;;;22.90;96.70;;;;;;4960861;28;20039;-72
2023/05/09 09:33:28;;;;;;;5.80;4.03;;;23.00;96.70;;;;;;4963605;28;20058;-72
2023/05/09 09:35:58;;;;;;;6.70;4.50;;;22.70;96.70;;;;;;4963868;28;20058;-71
2023/05/09 09:38:27;;;;;;;6.95;4.40;;;22.80;96.70;;;;;;4972296;28;20142;-72
2023/05/09 09:40:56;;;;;;;4.63;4.13;;;23.00;96.70;;;;;;4964021;28;20053;-72
2023/05/09 09:43:28;;;;;;;5.70;4.63;;;23.10;96.70;;;;;;4966691;28;20122;-72
2023/05/09 09:45:59;;;;;;;6.53;4.53;;;23.10;96.70;;;;;;4960274;28;20075;-72
2023/05/09 09:48:34;;;;;;;6.88;4.20;;;23.20;96.70;;;;;;4961816;28;20428;-72
2023/05/09 09:51:11;;;;;;;6.18;4.38;;;23.00;96.70;;;;;;4962603;28;20055;-73
2023/05/09 09:53:40;;;;;;;5.43;3.63;;;23.00;96.70;;;;;;4957010;28;20059;-72
2023/05/09 09:56:09;;;;;;;5.63;4.05;;;23.20;96.70;;;;;;4963070;28;20053;-72
2023/05/09 09:58:38;;;;;;;4.90;4.15;;;23.30;96.70;;;;;;4955674;28;20210;-72
2023/05/09 10:01:08;;;;;;;5.43;4.20;;;23.50;96.70;;;;;;4965800;28;20389;-73
2023/05/09 10:03:38;;;;;;;6.88;3.78;;;23.40;96.70;;;;;;4965059;28;20138;-72
2023/05/09 10:06:11;;;;;;;7.93;4.00;;;23.50;96.70;;;;;;4965680;28;20181;-72
2023/05/09 10:08:40;;;;;;;4.25;3.42;;;23.40;96.70;;;;;;4958378;28;20074;-72
2023/05/09 10:11:09;;;;;;;6.20;3.75;;;23.30;96.70;;;;;;4961201;28;20074;-72
2023/05/09 10:13:38;;;;;;;5.13;3.33;;;23.30;96.70;;;;;;4949141;28;20062;-72
2023/05/09 10:16:09;;;;;;;7.03;2.95;;;23.40;96.70;;;;;;4964041;28;20070;-72
2023/05/09 10:18:39;;;;;;;5.78;3.28;;;23.50;96.70;;;;;;4964582;28;20133;-73
2023/05/09 10:21:14;;;;;;;4.10;2.97;;;23.70;96.70;;;;;;4965231;28;20051;-73
2023/05/09 10:23:47;;;;;;;4.10;3.15;;;23.80;96.70;;;;;;4964705;28;20042;-73
2023/05/09 10:26:21;;;;;;;3.78;3.00;;;24.20;96.70;;;;;;4970732;28;20057;-72
2023/05/09 10:28:54;;;;;;;3.90;2.88;;;24.20;96.70;;;;;;4965088;28;20058;-73
2023/05/09 10:31:28;;;;;;;3.78;2.85;;;24.10;96.70;;;;;;4963015;28;20327;-72
2023/05/09 10:34:04;;;;;;;2.97;2.72;;;24.10;96.70;;;;;;4955278;28;20049;-72
2023/05/09 10:36:35;;;;;;;6.22;3.08;;;24.20;96.70;;;;;;4947567;28;20054;-72
2023/05/09 10:39:04;;;;;;;3.65;3.35;;;24.30;96.70;;;;;;4963191;28;20142;-73
2023/05/09 10:41:32;;;;;;;3.00;2.70;;;24.40;96.70;;;;;;4962484;28;20046;-72
2023/05/09 10:44:02;;;;;;;5.25;3.10;;;24.50;96.70;;;;;;4965264;28;20049;-73
2023/05/09 10:46:31;;;;;;;3.65;2.70;;;24.50;96.70;;;;;;4964072;28;20050;-73
2023/05/09 10:49:00;;;;;;;3.72;2.80;;;24.80;96.70;;;;;;4964959;28;20507;-72
2023/05/09 10:51:28;;;;;;;4.35;2.90;;;24.70;96.70;;;;;;4962723;28;21084;-72
2023/05/09 10:53:58;;;;;;;3.17;2.90;;;24.70;96.70;;;;;;4961875;28;20047;-73
2023/05/09 10:56:33;;;;;;;4.43;3.28;;;25.10;96.70;;;;;;4962882;28;20071;-72
2023/05/09 10:59:04;;;;;;;4.90;2.80;;;25.20;96.70;;;;;;4964276;28;20524;-72
2023/05/09 11:01:35;;;;;;;3.08;2.78;;;25.20;96.70;;;;;;4948109;28;20059;-72
2023/05/09 11:04:10;;;;;;;5.32;3.00;;;25.20;96.70;;;;;;4950331;28;20415;-72
2023/05/09 11:06:46;;;;;;;3.08;2.70;;;25.40;96.70;;;;;;4962545;28;20430;-72
2023/05/09 11:09:27;;;;;;;4.10;3.20;;;25.60;96.70;;;;;;4963233;28;20058;-72
2023/05/09 11:11:57;;;;;;;3.20;2.90;;;25.60;96.70;;;;;;4962650;28;20765;-72
2023/05/09 11:14:30;;;;;;;3.53;2.80;;;25.80;96.70;;;;;;4964482;28;20047;-72
2023/05/09 11:16:59;;;;;;;3.95;3.00;;;25.80;96.70;;;;;;4959763;28;20149;-72
2023/05/09 11:19:36;;;;;;;4.05;2.85;;;25.90;96.70;;;;;;4963648;28;20042;-73
2023/05/09 11:22:15;;;;;;;6.65;3.22;;;26.00;96.70;;;;;;4957866;28;20070;-72
2023/05/09 11:24:47;;;;;;;3.85;2.80;;;26.30;96.70;;;;;;4963889;28;20039;-72
2023/05/09 11:27:18;;;;;;;5.07;3.03;;;26.40;96.70;;;;;;4961930;28;20525;-72
2023/05/09 11:29:51;;;;;;;3.60;3.00;;;26.50;96.70;;;;;;4945525;28;20109;-72
2023/05/09 11:32:20;;;;;;;5.22;3.00;;;26.50;96.70;;;;;;4978820;28;20057;-72
2023/05/09 11:34:49;;;;;;;3.15;2.85;;;26.60;96.70;;;;;;4964328;28;20053;-72
2023/05/09 11:37:18;;;;;;;3.15;2.85;;;26.50;96.70;;;;;;4964237;28;20407;-72
2023/05/09 11:39:58;;;;;;;3.30;2.97;;;26.70;96.70;;;;;;4964370;28;20097;-72
2023/05/09 11:42:28;;;;;;;3.50;2.72;;;26.80;96.70;;;;;;4949361;28;20199;-72
2023/05/09 11:44:57;;;;;;;3.40;2.90;;;26.70;96.70;;;;;;4956926;28;20053;-73
2023/05/09 11:47:28;;;;;;;4.88;3.25;;;26.70;96.70;;;;;;4963864;28;20039;-72
2023/05/09 11:49:56;;;;;;;3.85;2.92;;;26.70;96.70;;;;;;4964617;28;20130;-72
2023/05/09 11:52:25;;;;;;;4.00;2.90;;;26.70;96.70;;;;;;4953083;28;20039;-73
2023/05/09 11:54:53;;;;;;;3.05;2.85;;;26.60;96.70;;;;;;4961794;28;20071;-72
2023/05/09 11:57:24;;;;;;;3.70;2.72;;;26.70;96.70;;;;;;4961092;28;20042;-72
2023/05/09 11:59:52;;;;;;;4.45;3.15;;;26.70;96.70;;;;;;4964315;28;20054;-72
2023/05/09 12:02:21;;;;;;;2.90;2.70;;;26.90;96.70;;;;;;4963746;28;20050;-73
2023/05/09 12:04:50;;;;;;;2.97;2.72;;;27.00;96.70;;;;;;4960558;28;20613;-72
2023/05/09 12:07:19;;;;;;;3.47;2.40;;;27.00;96.70;;;;;;4955606;28;20078;-72
2023/05/09 12:09:49;;;;;;;2.60;2.35;;;27.10;96.70;;;;;;4953464;28;20058;-73
2023/05/09 12:12:20;;;;;;;3.58;2.30;;;27.30;96.70;;;;;;4961053;28;20424;-72
2023/05/09 12:14:50;;;;;;;2.35;2.15;;;27.40;96.70;;;;;;4967760;28;20058;-72
2023/05/09 12:17:20;;;;;;;3.13;2.78;;;27.30;96.70;;;;;;4966845;28;20069;-73
2023/05/09 12:19:48;;;;;;;3.88;2.38;;;27.40;96.70;;;;;;4958194;28;20047;-72
2023/05/09 12:22:17;;;;;;;4.07;2.70;;;27.20;96.70;;;;;;4967753;28;20050;-72
2023/05/09 12:24:45;;;;;;;2.88;2.58;;;27.20;96.70;;;;;;4967211;28;20053;-72
2023/05/09 12:27:14;;;;;;;3.33;2.50;;;27.30;96.70;;;;;;4967734;28;20141;-72
2023/05/09 12:29:44;;;;;;;3.65;2.60;;;27.30;96.70;;;;;;4967274;28;20541;-72
2023/05/09 12:32:15;;;;;;;2.72;2.30;;;27.30;96.70;;;;;;4957660;28;20672;-72
2023/05/09 12:34:46;;;;;;;4.57;2.65;;;27.30;96.70;;;;;;4967608;28;20042;-72
2023/05/09 12:37:18;;;;;;;2.92;2.63;;;27.40;96.70;;;;;;4956608;28;20507;-72
2023/05/09 12:40:00;;;;;;;2.67;2.33;;;27.60;96.70;;;;;;4967150;28;20578;-73
2023/05/09 12:42:29;;;;;;;5.15;3.13;;;27.90;96.70;;;;;;4959757;28;20097;-73
2023/05/09 12:44:58;;;;;;;4.43;2.78;;;28.00;96.70;;;;;;4967814;28;20073;-73
2023/05/09 12:47:29;;;;;;;2.90;2.60;;;28.10;96.70;;;;;;4967470;28;20130;-73
2023/05/09 12:49:58;;;;;;;2.92;2.50;;;28.00;96.70;;;;;;4967219;28;20070;-73
2023/05/09 12:52:33;;;;;;;2.92;2.70;;;27.80;96.70;;;;;;4966066;28;20161;-73
2023/05/09 12:55:08;;;;;;;3.47;3.03;;;27.80;96.70;;;;;;4956938;28;20404;-74
2023/05/09 12:57:37;;;;;;;2.90;2.67;;;28.00;96.70;;;;;;4965891;28;20168;-72
2023/05/09 13:00:08;;;;;;;4.70;2.70;;;28.10;96.70;;;;;;4938751;29;20519;-73
2023/05/09 13:02:40;;;;;;;3.70;3.05;;;27.90;96.70;;;;;;4962459;28;20046;-73
2023/05/09 13:05:11;;;;;;;2.97;2.67;;;27.50;96.70;;;;;;4964497;28;20053;-73
2023/05/09 13:07:41;;;;;;;2.60;2.40;;;27.30;96.70;;;;;;4966179;28;20043;-72
2023/05/09 13:10:13;;;;;;;2.95;2.40;;;27.20;96.70;;;;;;4966878;28;20043;-73
2023/05/09 13:12:47;;;;;;;3.88;2.78;;;27.60;96.70;;;;;;4966921;28;20047;-73
2023/05/09 13:15:18;;;;;;;3.22;2.50;;;27.70;96.70;;;;;;4955156;28;20051;-73
2023/05/09 13:17:50;;;;;;;3.30;2.80;;;27.90;96.70;;;;;;4965475;28;20063;-72
2023/05/09 13:20:19;;;;;;;3.20;2.90;;;28.20;96.70;;;;;;4949395;28;20459;-72
2023/05/09 13:22:47;;;;;;;3.47;2.85;;;28.70;96.70;;;;;;4949670;28;20053;-72
2023/05/09 13:25:16;;;;;;;3.22;2.63;;;28.90;96.70;;;;;;4948639;28;20512;-72
2023/05/09 13:27:45;;;;;;;3.42;2.65;;;29.10;96.70;;;;;;4973554;28;20053;-73
2023/05/09 13:30:14;;;;;;;3.13;2.70;;;29.30;96.70;;;;;;4966728;28;20055;-72
2023/05/09 13:32:43;;;;;;;3.58;2.65;;;29.30;96.70;;;;;;4965050;28;20106;-72
2023/05/09 13:35:13;;;;;;;3.00;2.80;;;28.90;96.70;;;;;;4966333;28;20061;-72
2023/05/09 13:37:42;;;;;;;3.88;2.97;;;28.30;96.70;;;;;;4966136;28;20053;-73
2023/05/09 13:40:11;;;;;;;3.08;2.38;;;27.90;96.70;;;;;;4965760;28;20146;-72
2023/05/09 13:42:40;;;;;;;2.42;1.88;;;27.60;96.70;;;;;;4966435;28;20578;-72
2023/05/09 13:45:10;;;;;;;3.97;2.70;;;28.40;96.70;;;;;;4975662;28;20574;-72
2023/05/09 13:47:39;;;;;;;4.22;2.83;;;28.80;96.70;;;;;;4943956;28;20051;-73
2023/05/09 13:50:08;;;;;;;3.17;2.33;;;28.30;96.70;;;;;;4966568;28;20061;-72
2023/05/09 13:52:38;;;;;;;3.05;2.58;;;28.60;96.70;;;;;;4948416;28;20739;-73
2023/05/09 13:55:07;;;;;;;2.75;2.55;;;29.20;96.70;;;;;;4958349;28;20051;-73
2023/05/09 13:57:35;;;;;;;3.67;2.58;;;29.60;96.70;;;;;;4965967;28;20062;-72
2023/05/09 14:00:06;;;;;;;2.35;2.10;;;29.60;96.70;;;;;;4963379;28;20042;-73
2023/05/09 14:02:39;;;;;;;4.50;2.50;;;30.00;96.70;;;;;;4963767;28;20054;-72
2023/05/09 14:05:08;;;;;;;3.05;2.45;;;30.20;96.70;;;;;;4964890;28;20306;-72
2023/05/09 14:07:38;;;;;;;2.50;2.30;;;30.20;96.70;;;;;;4965432;28;20067;-72
2023/05/09 14:10:07;;;;;;;3.20;2.50;;;30.50;96.70;;;;;;4952024;28;20047;-73
2023/05/09 14:12:39;;;;;;;3.78;2.25;;;30.60;96.70;;;;;;4962840;28;20150;-73
2023/05/09 14:15:08;;;;;;;4.32;2.53;;;30.90;96.70;;;;;;4963690;28;20093;-73
2023/05/09 14:17:37;;;;;;;3.67;2.35;;;30.90;96.70;;;;;;4964728;28;20053;-72
2023/05/09 14:20:07;;;;;;;2.35;2.20;;;30.80;96.70;;;;;;4965663;28;20047;-72
2023/05/09 14:22:37;;;;;;;5.95;2.45;;;31.30;96.70;;;;;;4966295;28;20106;-73
2023/05/09 14:25:06;;;;;;;2.30;2.10;;;31.30;96.70;;;;;;4965995;28;20849;-72
2023/05/09 14:27:37;;;;;;;6.15;3.60;;;31.60;96.70;;;;;;4962871;28;20058;-72
2023/05/09 14:30:07;;;;;;;5.72;4.05;;;31.40;96.70;;;;;;4965112;28;20047;-73
2023/05/09 14:32:36;;;;;;;5.97;3.38;;;30.90;96.70;;;;;;4964456;28;20052;-72
2023/05/09 14:35:05;;;;;;;5.22;3.30;;;30.70;96.70;;;;;;4965586;28;20047;-73
2023/05/09 14:37:33;;;;;;;4.85;3.15;;;30.60;96.70;;;;;;4965166;28;20604;-73
2023/05/09 14:40:04;;;;;;;5.55;3.58;;;30.60;96.70;;;;;;4962417;28;20118;-73
2023/05/09 14:42:33;;;;;;;3.95;3.35;;;30.80;96.70;;;;;;4962975;28;20050;-72
2023/05/09 14:45:01;;;;;;;4.15;3.30;;;30.80;96.70;;;;;;4965114;28;20043;-73
2023/05/09 14:47:30;;;;;;;6.65;3.15;;;30.90;96.70;;;;;;4959315;28;20043;-73
2023/05/09 14:49:58;;;;;;;5.82;3.92;;;30.80;96.70;;;;;;4961124;28;20039;-72
2023/05/09 14:52:27;;;;;;;6.57;3.40;;;30.80;96.70;;;;;;4962868;28;20105;-73
2023/05/09 14:54:56;;;;;;;4.88;3.00;;;30.30;96.70;;;;;;4963617;28;20129;-72
2023/05/09 14:57:26;;;;;;;3.33;3.03;;;30.30;96.70;;;;;;4964937;28;20050;-73
2023/05/09 14:59:54;;;;;;;7.78;3.03;;;30.20;96.70;;;;;;4964834;28;20073;-71
2023/05/09 15:02:33;;;;;;;3.58;3.28;;;30.40;96.70;;;;;;4954200;28;20521;-73
2023/05/09 15:05:01;;;;;;;7.70;3.20;;;30.30;96.70;;;;;;4965031;28;20047;-73
2023/05/09 15:07:30;;;;;;;8.75;3.33;;;30.30;96.70;;;;;;4961079;28;20043;-72
2023/05/09 15:09:58;;;;;;;3.80;3.25;;;30.30;96.70;;;;;;4970309;28;20039;-73
2023/05/09 15:12:28;;;;;;;6.57;2.75;;;30.30;96.70;;;;;;4967136;28;20058;-73
2023/05/09 15:15:10;;;;;;;4.82;2.65;;;29.90;96.70;;;;;;4961206;28;20484;-72
2023/05/09 15:17:39;;;;;;;3.97;3.40;;;29.80;96.70;;;;;;4964496;28;20054;-72
2023/05/09 15:20:08;;;;;;;4.00;2.88;;;30.00;96.70;;;;;;4957228;28;20098;-73
2023/05/09 15:22:36;;;;;;;3.80;2.90;;;30.00;96.70;;;;;;4962079;28;20572;-73
2023/05/09 15:25:06;;;;;;;4.55;3.45;;;30.10;96.70;;;;;;4964172;28;20042;-73
2023/05/09 15:27:36;;;;;;;3.28;2.75;;;30.30;96.70;;;;;;4964267;28;20141;-72
2023/05/09 15:30:06;;;;;;;3.45;2.50;;;30.10;96.70;;;;;;4965059;28;20046;-72
2023/05/09 15:32:36;;;;;;;3.42;2.85;;;30.20;96.70;;;;;;4962989;28;20050;-72
2023/05/09 15:35:05;;;;;;;3.63;3.13;;;30.50;96.70;;;;;;4938015;28;20058;-73
2023/05/09 15:37:35;;;;;;;5.88;3.30;;;30.60;96.70;;;;;;4964224;28;20053;-72
2023/05/09 15:40:04;;;;;;;2.92;2.72;;;30.90;96.70;;;;;;4949286;28;20047;-73
2023/05/09 15:42:32;;;;;;;5.15;2.78;;;30.40;96.70;;;;;;4961814;28;20490;-73
2023/05/09 15:45:03;;;;;;;2.75;2.55;;;29.90;96.70;;;;;;4964215;28;20231;-72
2023/05/09 15:47:31;;;;;;;3.13;2.83;;;29.60;96.70;;;;;;4962566;28;20090;-72
2023/05/09 15:50:00;;;;;;;3.50;3.20;;;29.60;96.70;;;;;;4964398;28;20070;-73
2023/05/09 15:52:28;;;;;;;5.20;3.05;;;29.90;96.70;;;;;;4964889;28;20081;-73
2023/05/09 15:54:57;;;;;;;4.40;3.40;;;29.90;96.70;;;;;;4963930;28;20173;-72
2023/05/09 15:57:26;;;;;;;3.33;2.92;;;29.30;96.70;;;;;;4964174;28;20043;-73
2023/05/09 15:59:54;;;;;;;7.82;3.08;;;29.00;96.70;;;;;;4953520;28;20169;-73
2023/05/09 16:02:24;;;;;;;3.50;3.10;;;29.20;96.70;;;;;;4964091;28;20059;-72
2023/05/09 16:04:53;;;;;;;4.45;2.70;;;29.20;96.70;;;;;;4964375;28;20070;-73
2023/05/09 16:07:22;;;;;;;6.63;2.50;;;29.30;96.70;;;;;;4964783;28;20611;-73
2023/05/09 16:09:50;;;;;;;3.50;2.60;;;29.20;96.70;;;;;;4961380;28;20051;-72
2023/05/09 16:12:19;;;;;;;3.90;2.30;;;29.20;96.70;;;;;;4968889;28;20135;-72
2023/05/09 16:14:47;;;;;;;4.53;2.53;;;28.80;96.70;;;;;;4963539;28;20047;-72
2023/05/09 16:17:15;;;;;;;3.70;2.78;;;28.80;96.70;;;;;;4961574;28;20050;-73
2023/05/09 16:19:46;;;;;;;2.97;2.20;;;28.80;96.70;;;;;;4964326;28;20098;-72
2023/05/09 16:22:14;;;;;;;6.15;2.63;;;28.80;96.70;;;;;;4963969;28;20046;-73